sensor_id;sensor_type;location;lat;lon;timestamp;pressure;altitude;pressure_sealevel;temperature;humidity
54924;BME280;40825;52.270;20.984;2023-05-24T00:01:16;100199.61;;;18.10;49.22
54924;BME280;40825;52.270;20.984;2023-05-24T00:03:53;100195.70;;;18.10;49.26
54924;BME280;40825;52.270;20.984;2023-05-24T00:06:23;100193.74;;;18.09;49.56
54924;BME280;40825;52.270;20.984;2023-05-24T00:08:51;100197.21;;;18.06;49.57
54924;BME280;40825;52.270;20.984;2023-05-24T00:11:17;100193.15;;;18.05;49.68
54924;BME280;40825;52.270;20.984;2023-05-24T00:13:42;100192.86;;;18.02;50.35
54924;BME280;40825;52.270;20.984;2023-05-24T00:16:08;100193.70;;;17.97;50.00
54924;BME280;40825;52.270;20.984;2023-05-24T00:18:33;100193.14;;;17.95;50.04
54924;BME280;40825;52.270;20.984;2023-05-24T00:20:59;100191.80;;;17.94;49.74
54924;BME280;40825;52.270;20.984;2023-05-24T00:23:25;100185.13;;;17.92;50.00
54924;BME280;40825;52.270;20.984;2023-05-24T00:25:51;100184.06;;;17.89;50.16
54924;BME280;40825;52.270;20.984;2023-05-24T00:28:17;100184.88;;;17.86;50.36
54924;BME280;40825;52.270;20.984;2023-05-24T00:30:42;100183.20;;;17.83;50.70
54924;BME280;40825;52.270;20.984;2023-05-24T00:33:08;100182.06;;;17.79;50.94
54924;BME280;40825;52.270;20.984;2023-05-24T00:35:34;100183.02;;;17.75;50.98
54924;BME280;40825;52.270;20.984;2023-05-24T00:37:59;100178.45;;;17.73;50.33
54924;BME280;40825;52.270;20.984;2023-05-24T00:40:26;100178.51;;;17.72;51.39
54924;BME280;40825;52.270;20.984;2023-05-24T00:42:52;100177.16;;;17.70;50.81
54924;BME280;40825;52.270;20.984;2023-05-24T00:45:18;100174.01;;;17.68;50.66
54924;BME280;40825;52.270;20.984;2023-05-24T00:47:44;100178.09;;;17.67;50.54
54924;BME280;40825;52.270;20.984;2023-05-24T00:50:11;100177.48;;;17.67;50.45
54924;BME280;40825;52.270;20.984;2023-05-24T00:52:42;100175.50;;;17.67;50.58
54924;BME280;40825;52.270;20.984;2023-05-24T00:55:08;100176.95;;;17.67;50.54
54924;BME280;40825;52.270;20.984;2023-05-24T00:57:35;100173.66;;;17.67;50.65
54924;BME280;40825;52.270;20.984;2023-05-24T01:00:03;100172.64;;;17.67;50.63
54924;BME280;40825;52.270;20.984;2023-05-24T01:02:29;100173.42;;;17.66;50.63
54924;BME280;40825;52.270;20.984;2023-05-24T01:04:55;100175.51;;;17.65;50.76
54924;BME280;40825;52.270;20.984;2023-05-24T01:07:44;100179.70;;;17.63;50.52
54924;BME280;40825;52.270;20.984;2023-05-24T01:16:46;100170.83;;;17.56;51.46
54924;BME280;40825;52.270;20.984;2023-05-24T01:19:38;100169.44;;;17.54;51.41
54924;BME280;40825;52.270;20.984;2023-05-24T01:27:35;100173.73;;;17.49;51.33
54924;BME280;40825;52.270;20.984;2023-05-24T01:30:02;100175.73;;;17.49;51.33
54924;BME280;40825;52.270;20.984;2023-05-24T01:32:29;100173.65;;;17.47;51.03
54924;BME280;40825;52.270;20.984;2023-05-24T01:34:55;100176.96;;;17.46;51.25
54924;BME280;40825;52.270;20.984;2023-05-24T01:37:21;100179.30;;;17.43;51.23
54924;BME280;40825;52.270;20.984;2023-05-24T01:39:46;100176.52;;;17.42;51.31
54924;BME280;40825;52.270;20.984;2023-05-24T01:42:25;100183.28;;;17.40;51.44
54924;BME280;40825;52.270;20.984;2023-05-24T01:45:07;100181.38;;;17.38;51.95
54924;BME280;40825;52.270;20.984;2023-05-24T01:50:33;100184.13;;;17.36;51.89
54924;BME280;40825;52.270;20.984;2023-05-24T01:53:03;100182.56;;;17.35;52.47
54924;BME280;40825;52.270;20.984;2023-05-24T01:55:31;100186.15;;;17.34;52.44
54924;BME280;40825;52.270;20.984;2023-05-24T01:58:01;100187.66;;;17.31;52.46
54924;BME280;40825;52.270;20.984;2023-05-24T02:00:27;100187.11;;;17.28;52.68
54924;BME280;40825;52.270;20.984;2023-05-24T02:02:54;100183.93;;;17.25;52.84
54924;BME280;40825;52.270;20.984;2023-05-24T02:05:20;100181.53;;;17.23;53.10
54924;BME280;40825;52.270;20.984;2023-05-24T02:07:46;100186.13;;;17.22;53.31
54924;BME280;40825;52.270;20.984;2023-05-24T02:10:11;100184.66;;;17.18;53.65
54924;BME280;40825;52.270;20.984;2023-05-24T02:12:37;100187.27;;;17.16;53.67
54924;BME280;40825;52.270;20.984;2023-05-24T02:15:03;100186.94;;;17.16;54.00
54924;BME280;40825;52.270;20.984;2023-05-24T02:17:29;100186.75;;;17.14;54.01
54924;BME280;40825;52.270;20.984;2023-05-24T02:19:58;100186.64;;;17.11;54.30
54924;BME280;40825;52.270;20.984;2023-05-24T02:22:25;100185.81;;;17.07;54.45
54924;BME280;40825;52.270;20.984;2023-05-24T02:24:51;100187.73;;;17.04;54.67
54924;BME280;40825;52.270;20.984;2023-05-24T02:27:16;100191.17;;;17.01;54.23
54924;BME280;40825;52.270;20.984;2023-05-24T02:29:42;100190.36;;;16.96;54.54
54924;BME280;40825;52.270;20.984;2023-05-24T02:32:07;100192.05;;;16.92;54.52
54924;BME280;40825;52.270;20.984;2023-05-24T02:34:33;100194.73;;;16.89;54.55
54924;BME280;40825;52.270;20.984;2023-05-24T02:36:58;100193.38;;;16.86;54.57
54924;BME280;40825;52.270;20.984;2023-05-24T02:39:24;100195.34;;;16.84;54.61
54924;BME280;40825;52.270;20.984;2023-05-24T02:41:49;100194.98;;;16.80;54.42
54924;BME280;40825;52.270;20.984;2023-05-24T02:44:15;100193.27;;;16.75;54.48
54924;BME280;40825;52.270;20.984;2023-05-24T02:46:40;100193.67;;;16.71;55.15
54924;BME280;40825;52.270;20.984;2023-05-24T02:49:06;100190.45;;;16.69;54.65
54924;BME280;40825;52.270;20.984;2023-05-24T02:51:31;100191.48;;;16.67;54.97
54924;BME280;40825;52.270;20.984;2023-05-24T02:53:57;100189.14;;;16.65;55.00
54924;BME280;40825;52.270;20.984;2023-05-24T02:56:22;100190.10;;;16.65;55.07
54924;BME280;40825;52.270;20.984;2023-05-24T02:58:48;100193.77;;;16.63;54.85
54924;BME280;40825;52.270;20.984;2023-05-24T03:01:14;100190.84;;;16.62;55.04
54924;BME280;40825;52.270;20.984;2023-05-24T03:03:40;100193.21;;;16.62;55.24
54924;BME280;40825;52.270;20.984;2023-05-24T03:06:06;100190.94;;;16.62;55.46
54924;BME280;40825;52.270;20.984;2023-05-24T03:08:33;100189.74;;;16.61;55.63
54924;BME280;40825;52.270;20.984;2023-05-24T03:10:58;100192.81;;;16.61;55.49
54924;BME280;40825;52.270;20.984;2023-05-24T03:13:24;100199.18;;;16.62;55.71
54924;BME280;40825;52.270;20.984;2023-05-24T03:15:50;100198.80;;;16.63;55.92
54924;BME280;40825;52.270;20.984;2023-05-24T03:18:15;100198.09;;;16.63;55.89
54924;BME280;40825;52.270;20.984;2023-05-24T03:20:41;100200.95;;;16.63;55.94
54924;BME280;40825;52.270;20.984;2023-05-24T03:23:06;100203.36;;;16.63;56.03
54924;BME280;40825;52.270;20.984;2023-05-24T03:25:33;100202.02;;;16.63;56.10
54924;BME280;40825;52.270;20.984;2023-05-24T03:27:59;100202.57;;;16.63;55.62
54924;BME280;40825;52.270;20.984;2023-05-24T03:30:27;100207.05;;;16.63;55.87
54924;BME280;40825;52.270;20.984;2023-05-24T03:32:52;100205.56;;;16.65;56.09
54924;BME280;40825;52.270;20.984;2023-05-24T03:35:18;100206.06;;;16.65;55.74
54924;BME280;40825;52.270;20.984;2023-05-24T03:37:44;100206.41;;;16.66;55.50
54924;BME280;40825;52.270;20.984;2023-05-24T03:40:10;100204.86;;;16.67;55.25
54924;BME280;40825;52.270;20.984;2023-05-24T03:42:36;100206.30;;;16.67;55.51
54924;BME280;40825;52.270;20.984;2023-05-24T03:45:03;100206.05;;;16.68;55.75
54924;BME280;40825;52.270;20.984;2023-05-24T03:47:30;100209.10;;;16.69;55.83
54924;BME280;40825;52.270;20.984;2023-05-24T03:49:55;100212.42;;;16.71;55.66
54924;BME280;40825;52.270;20.984;2023-05-24T03:52:21;100211.14;;;16.71;55.80
54924;BME280;40825;52.270;20.984;2023-05-24T03:54:47;100209.39;;;16.70;55.76
54924;BME280;40825;52.270;20.984;2023-05-24T03:57:13;100208.86;;;16.70;56.01
54924;BME280;40825;52.270;20.984;2023-05-24T03:59:39;100212.17;;;16.72;55.81
54924;BME280;40825;52.270;20.984;2023-05-24T04:02:05;100218.79;;;16.74;55.83
54924;BME280;40825;52.270;20.984;2023-05-24T04:04:32;100223.92;;;16.76;56.04
54924;BME280;40825;52.270;20.984;2023-05-24T04:06:57;100226.90;;;16.82;56.27
54924;BME280;40825;52.270;20.984;2023-05-24T04:09:23;100227.09;;;16.86;56.22
54924;BME280;40825;52.270;20.984;2023-05-24T04:11:48;100228.29;;;16.89;56.04
54924;BME280;40825;52.270;20.984;2023-05-24T04:14:14;100226.93;;;16.91;56.22
54924;BME280;40825;52.270;20.984;2023-05-24T04:16:40;100228.52;;;16.95;56.20
54924;BME280;40825;52.270;20.984;2023-05-24T04:19:10;100232.14;;;16.98;55.92
54924;BME280;40825;52.270;20.984;2023-05-24T04:21:36;100233.44;;;17.00;55.82
54924;BME280;40825;52.270;20.984;2023-05-24T04:24:03;100234.88;;;17.01;55.75
54924;BME280;40825;52.270;20.984;2023-05-24T04:26:29;100238.87;;;17.03;55.83
54924;BME280;40825;52.270;20.984;2023-05-24T04:28:56;100243.61;;;17.07;55.96
54924;BME280;40825;52.270;20.984;2023-05-24T04:31:22;100245.54;;;17.08;55.48
54924;BME280;40825;52.270;20.984;2023-05-24T04:33:47;100249.05;;;17.09;55.27
54924;BME280;40825;52.270;20.984;2023-05-24T04:36:14;100256.52;;;17.13;55.01
54924;BME280;40825;52.270;20.984;2023-05-24T04:38:40;100262.27;;;17.16;55.22
54924;BME280;40825;52.270;20.984;2023-05-24T04:41:05;100262.39;;;17.23;55.49
54924;BME280;40825;52.270;20.984;2023-05-24T04:43:32;100262.84;;;17.29;54.91
54924;BME280;40825;52.270;20.984;2023-05-24T04:45:59;100260.41;;;17.38;55.07
54924;BME280;40825;52.270;20.984;2023-05-24T04:48:24;100258.06;;;17.47;55.36
54924;BME280;40825;52.270;20.984;2023-05-24T04:50:50;100253.59;;;17.56;55.06
54924;BME280;40825;52.270;20.984;2023-05-24T04:53:17;100255.55;;;17.64;54.95
54924;BME280;40825;52.270;20.984;2023-05-24T04:55:43;100256.08;;;17.68;54.47
54924;BME280;40825;52.270;20.984;2023-05-24T04:58:08;100258.20;;;17.69;54.01
54924;BME280;40825;52.270;20.984;2023-05-24T05:00:33;100265.03;;;17.71;53.85
54924;BME280;40825;52.270;20.984;2023-05-24T05:02:59;100264.48;;;17.71;53.80
54924;BME280;40825;52.270;20.984;2023-05-24T05:05:24;100264.60;;;17.74;53.94
54924;BME280;40825;52.270;20.984;2023-05-24T05:07:50;100263.96;;;17.78;53.51
54924;BME280;40825;52.270;20.984;2023-05-24T05:10:15;100270.88;;;17.81;53.30
54924;BME280;40825;52.270;20.984;2023-05-24T05:12:41;100268.69;;;17.85;53.41
54924;BME280;40825;52.270;20.984;2023-05-24T05:15:07;100271.69;;;17.94;53.58
54924;BME280;40825;52.270;20.984;2023-05-24T05:17:33;100271.92;;;18.03;53.22
54924;BME280;40825;52.270;20.984;2023-05-24T05:19:59;100267.73;;;18.12;53.21
54924;BME280;40825;52.270;20.984;2023-05-24T05:22:24;100273.81;;;18.19;53.13
54924;BME280;40825;52.270;20.984;2023-05-24T05:24:50;100281.63;;;18.24;52.92
54924;BME280;40825;52.270;20.984;2023-05-24T05:27:16;100280.41;;;18.28;53.04
54924;BME280;40825;52.270;20.984;2023-05-24T05:29:41;100282.35;;;18.38;52.55
54924;BME280;40825;52.270;20.984;2023-05-24T05:32:07;100278.20;;;18.50;52.84
54924;BME280;40825;52.270;20.984;2023-05-24T05:34:32;100282.27;;;18.63;52.55
54924;BME280;40825;52.270;20.984;2023-05-24T05:36:58;100284.52;;;18.76;52.71
54924;BME280;40825;52.270;20.984;2023-05-24T05:39:23;100287.77;;;18.88;52.54
54924;BME280;40825;52.270;20.984;2023-05-24T05:41:49;100290.25;;;18.95;52.73
54924;BME280;40825;52.270;20.984;2023-05-24T05:44:15;100290.77;;;18.99;51.86
54924;BME280;40825;52.270;20.984;2023-05-24T05:46:40;100294.14;;;19.05;52.13
54924;BME280;40825;52.270;20.984;2023-05-24T05:49:08;100294.65;;;19.20;52.23
54924;BME280;40825;52.270;20.984;2023-05-24T05:51:34;100293.89;;;19.48;52.46
54924;BME280;40825;52.270;20.984;2023-05-24T05:54:01;100296.64;;;19.65;51.51
54924;BME280;40825;52.270;20.984;2023-05-24T05:56:26;100294.30;;;19.91;51.67
54924;BME280;40825;52.270;20.984;2023-05-24T05:58:52;100303.52;;;20.07;50.45
54924;BME280;40825;52.270;20.984;2023-05-24T06:01:17;100307.38;;;20.14;49.68
54924;BME280;40825;52.270;20.984;2023-05-24T06:03:43;100309.07;;;20.28;49.91
54924;BME280;40825;52.270;20.984;2023-05-24T06:06:08;100311.71;;;20.33;50.08
54924;BME280;40825;52.270;20.984;2023-05-24T06:08:35;100314.98;;;20.37;48.32
54924;BME280;40825;52.270;20.984;2023-05-24T06:11:01;100314.21;;;20.48;48.87
54924;BME280;40825;52.270;20.984;2023-05-24T06:13:26;100310.45;;;20.85;48.92
54924;BME280;40825;52.270;20.984;2023-05-24T06:15:53;100310.83;;;21.23;47.30
54924;BME280;40825;52.270;20.984;2023-05-24T06:18:19;100314.38;;;21.43;47.10
54924;BME280;40825;52.270;20.984;2023-05-24T06:20:45;100316.27;;;21.57;45.24
54924;BME280;40825;52.270;20.984;2023-05-24T06:23:11;100319.59;;;21.71;44.68
54924;BME280;40825;52.270;20.984;2023-05-24T06:25:37;100322.00;;;22.12;45.53
54924;BME280;40825;52.270;20.984;2023-05-24T06:28:03;100323.70;;;22.45;44.94
54924;BME280;40825;52.270;20.984;2023-05-24T06:30:29;100323.81;;;22.63;44.92
54924;BME280;40825;52.270;20.984;2023-05-24T06:32:54;100323.53;;;22.68;44.24
54924;BME280;40825;52.270;20.984;2023-05-24T06:35:20;100327.34;;;22.70;42.45
54924;BME280;40825;52.270;20.984;2023-05-24T06:37:46;100328.63;;;23.00;43.78
54924;BME280;40825;52.270;20.984;2023-05-24T06:40:12;100333.94;;;23.67;44.37
54924;BME280;40825;52.270;20.984;2023-05-24T06:42:38;100336.89;;;24.24;41.96
54924;BME280;40825;52.270;20.984;2023-05-24T06:45:04;100344.19;;;24.44;39.85
54924;BME280;40825;52.270;20.984;2023-05-24T06:47:30;100346.11;;;24.48;38.86
54924;BME280;40825;52.270;20.984;2023-05-24T06:49:56;100350.14;;;24.57;40.05
54924;BME280;40825;52.270;20.984;2023-05-24T06:52:22;100350.88;;;24.71;39.80
54924;BME280;40825;52.270;20.984;2023-05-24T06:54:48;100356.83;;;24.72;39.61
54924;BME280;40825;52.270;20.984;2023-05-24T06:57:14;100357.20;;;25.02;39.62
54924;BME280;40825;52.270;20.984;2023-05-24T06:59:40;100358.92;;;25.56;39.30
54924;BME280;40825;52.270;20.984;2023-05-24T07:02:06;100362.16;;;26.40;38.93
54924;BME280;40825;52.270;20.984;2023-05-24T07:04:33;100363.60;;;27.20;37.87
54924;BME280;40825;52.270;20.984;2023-05-24T07:06:58;100362.30;;;27.89;35.42
54924;BME280;40825;52.270;20.984;2023-05-24T07:09:24;100367.00;;;28.28;33.16
54924;BME280;40825;52.270;20.984;2023-05-24T07:11:49;100367.48;;;28.66;33.05
54924;BME280;40825;52.270;20.984;2023-05-24T07:14:15;100365.59;;;29.33;33.12
54924;BME280;40825;52.270;20.984;2023-05-24T07:16:40;100368.38;;;29.65;30.47
54924;BME280;40825;52.270;20.984;2023-05-24T07:19:06;100371.98;;;29.99;32.80
54924;BME280;40825;52.270;20.984;2023-05-24T07:21:32;100373.11;;;30.31;30.04
54924;BME280;40825;52.270;20.984;2023-05-24T07:23:57;100377.91;;;30.59;30.60
54924;BME280;40825;52.270;20.984;2023-05-24T07:26:23;100383.20;;;30.45;28.88
54924;BME280;40825;52.270;20.984;2023-05-24T07:28:48;100389.64;;;29.88;29.83
54924;BME280;40825;52.270;20.984;2023-05-24T07:31:14;100389.83;;;29.38;30.45
54924;BME280;40825;52.270;20.984;2023-05-24T07:33:40;100393.30;;;29.19;30.54
54924;BME280;40825;52.270;20.984;2023-05-24T07:36:06;100396.16;;;28.71;31.21
54924;BME280;40825;52.270;20.984;2023-05-24T07:38:33;100401.17;;;28.47;30.34
54924;BME280;40825;52.270;20.984;2023-05-24T07:41:00;100403.91;;;27.75;31.14
54924;BME280;40825;52.270;20.984;2023-05-24T07:43:27;100407.73;;;27.32;31.92
54924;BME280;40825;52.270;20.984;2023-05-24T07:45:53;100411.23;;;26.69;32.34
54924;BME280;40825;52.270;20.984;2023-05-24T07:48:19;100410.30;;;26.31;33.19
54924;BME280;40825;52.270;20.984;2023-05-24T07:50:47;100409.52;;;26.13;34.03
54924;BME280;40825;52.270;20.984;2023-05-24T07:53:14;100412.80;;;26.22;34.77
54924;BME280;40825;52.270;20.984;2023-05-24T07:55:39;100412.17;;;26.21;34.52
54924;BME280;40825;52.270;20.984;2023-05-24T07:58:05;100414.78;;;25.97;34.62
54924;BME280;40825;52.270;20.984;2023-05-24T08:00:31;100414.80;;;25.80;34.55
54924;BME280;40825;52.270;20.984;2023-05-24T08:02:58;100414.81;;;25.79;35.18
54924;BME280;40825;52.270;20.984;2023-05-24T08:05:24;100415.41;;;25.67;35.11
54924;BME280;40825;52.270;20.984;2023-05-24T08:07:50;100411.60;;;25.56;35.56
54924;BME280;40825;52.270;20.984;2023-05-24T08:10:16;100416.39;;;25.63;35.63
54924;BME280;40825;52.270;20.984;2023-05-24T08:12:43;100417.20;;;25.58;35.73
54924;BME280;40825;52.270;20.984;2023-05-24T08:15:09;100419.23;;;25.51;36.09
54924;BME280;40825;52.270;20.984;2023-05-24T08:17:35;100418.49;;;25.54;36.41
54924;BME280;40825;52.270;20.984;2023-05-24T08:20:02;100421.08;;;25.28;36.83
54924;BME280;40825;52.270;20.984;2023-05-24T08:22:30;100420.23;;;26.22;35.53
54924;BME280;40825;52.270;20.984;2023-05-24T08:24:56;100423.08;;;27.32;33.54
54924;BME280;40825;52.270;20.984;2023-05-24T08:27:22;100424.66;;;28.36;32.88
54924;BME280;40825;52.270;20.984;2023-05-24T08:29:48;100424.72;;;29.22;32.04
54924;BME280;40825;52.270;20.984;2023-05-24T08:32:14;100429.94;;;29.70;31.07
54924;BME280;40825;52.270;20.984;2023-05-24T08:34:40;100433.13;;;29.63;30.00
54924;BME280;40825;52.270;20.984;2023-05-24T08:37:06;100433.92;;;29.04;30.80
54924;BME280;40825;52.270;20.984;2023-05-24T08:39:33;100437.59;;;28.93;30.46
54924;BME280;40825;52.270;20.984;2023-05-24T08:41:58;100439.57;;;28.91;30.18
54924;BME280;40825;52.270;20.984;2023-05-24T08:44:25;100437.61;;;29.36;30.59
54924;BME280;40825;52.270;20.984;2023-05-24T08:46:54;100438.19;;;29.63;29.81
54924;BME280;40825;52.270;20.984;2023-05-24T08:49:20;100437.05;;;29.59;29.30
54924;BME280;40825;52.270;20.984;2023-05-24T08:51:46;100440.95;;;29.87;29.52
54924;BME280;40825;52.270;20.984;2023-05-24T08:54:12;100440.17;;;29.85;30.01
54924;BME280;40825;52.270;20.984;2023-05-24T08:56:39;100444.15;;;29.85;29.59
54924;BME280;40825;52.270;20.984;2023-05-24T08:59:07;100443.37;;;30.10;29.28
54924;BME280;40825;52.270;20.984;2023-05-24T09:01:33;100445.90;;;30.21;29.13
54924;BME280;40825;52.270;20.984;2023-05-24T09:04:02;100446.60;;;29.46;29.14
54924;BME280;40825;52.270;20.984;2023-05-24T09:06:28;100447.16;;;28.70;30.14
54924;BME280;40825;52.270;20.984;2023-05-24T09:08:54;100454.17;;;28.01;31.08
54924;BME280;40825;52.270;20.984;2023-05-24T09:11:21;100454.68;;;27.27;31.69
54924;BME280;40825;52.270;20.984;2023-05-24T09:13:49;100457.30;;;26.76;32.28
54924;BME280;40825;52.270;20.984;2023-05-24T09:16:15;100458.61;;;26.76;32.64
54924;BME280;40825;52.270;20.984;2023-05-24T09:18:41;100461.08;;;27.04;32.87
54924;BME280;40825;52.270;20.984;2023-05-24T09:21:09;100457.83;;;27.47;32.61
54924;BME280;40825;52.270;20.984;2023-05-24T09:23:35;100461.66;;;27.94;31.79
54924;BME280;40825;52.270;20.984;2023-05-24T09:26:08;100462.54;;;28.12;31.64
54924;BME280;40825;52.270;20.984;2023-05-24T09:28:34;100464.36;;;28.39;31.46
54924;BME280;40825;52.270;20.984;2023-05-24T09:31:02;100459.90;;;28.57;31.18
54924;BME280;40825;52.270;20.984;2023-05-24T09:33:28;100465.68;;;28.09;31.57
54924;BME280;40825;52.270;20.984;2023-05-24T09:36:00;100473.42;;;27.43;32.33
54924;BME280;40825;52.270;20.984;2023-05-24T09:38:26;100476.53;;;26.83;32.62
54924;BME280;40825;52.270;20.984;2023-05-24T09:41:05;100477.58;;;26.55;33.21
54924;BME280;40825;52.270;20.984;2023-05-24T09:43:32;100477.52;;;26.28;33.53
54924;BME280;40825;52.270;20.984;2023-05-24T09:46:02;100481.38;;;26.12;34.09
54924;BME280;40825;52.270;20.984;2023-05-24T09:48:29;100481.36;;;25.97;34.36
54924;BME280;40825;52.270;20.984;2023-05-24T09:51:01;100477.84;;;25.86;34.85
54924;BME280;40825;52.270;20.984;2023-05-24T09:53:27;100477.33;;;25.73;34.58
54924;BME280;40825;52.270;20.984;2023-05-24T09:55:53;100476.58;;;25.62;35.04
54924;BME280;40825;52.270;20.984;2023-05-24T09:58:21;100471.80;;;25.60;35.08
54924;BME280;40825;52.270;20.984;2023-05-24T10:00:46;100476.05;;;25.56;35.59
54924;BME280;40825;52.270;20.984;2023-05-24T10:03:12;100477.29;;;25.58;36.14
54924;BME280;40825;52.270;20.984;2023-05-24T10:05:41;100472.40;;;25.48;36.08
54924;BME280;40825;52.270;20.984;2023-05-24T10:08:09;100469.27;;;25.34;35.94
54924;BME280;40825;52.270;20.984;2023-05-24T10:10:36;100472.70;;;25.17;35.87
54924;BME280;40825;52.270;20.984;2023-05-24T10:13:01;100471.66;;;25.18;36.09
54924;BME280;40825;52.270;20.984;2023-05-24T10:15:28;100471.77;;;25.23;36.52
54924;BME280;40825;52.270;20.984;2023-05-24T10:17:54;100474.61;;;25.29;36.77
54924;BME280;40825;52.270;20.984;2023-05-24T10:20:21;100475.77;;;25.34;36.73
54924;BME280;40825;52.270;20.984;2023-05-24T10:22:52;100479.98;;;25.43;36.63
54924;BME280;40825;52.270;20.984;2023-05-24T10:25:23;100477.98;;;25.47;36.43
54924;BME280;40825;52.270;20.984;2023-05-24T10:27:57;100476.98;;;25.48;36.51
54924;BME280;40825;52.270;20.984;2023-05-24T10:30:30;100482.71;;;25.50;36.83
54924;BME280;40825;52.270;20.984;2023-05-24T10:32:58;100483.80;;;25.49;38.21
54924;BME280;40825;52.270;20.984;2023-05-24T10:35:26;100485.67;;;25.38;38.87
54924;BME280;40825;52.270;20.984;2023-05-24T10:37:53;100486.92;;;25.33;39.66
54924;BME280;40825;52.270;20.984;2023-05-24T10:40:20;100489.68;;;25.30;40.23
54924;BME280;40825;52.270;20.984;2023-05-24T10:42:47;100489.25;;;25.30;39.84
54924;BME280;40825;52.270;20.984;2023-05-24T10:45:47;100486.95;;;25.36;39.49
54924;BME280;40825;52.270;20.984;2023-05-24T10:50:40;100489.20;;;25.39;40.09
54924;BME280;40825;52.270;20.984;2023-05-24T10:53:17;100490.84;;;25.40;39.81
54924;BME280;40825;52.270;20.984;2023-05-24T10:56:00;100494.84;;;25.38;39.43
54924;BME280;40825;52.270;20.984;2023-05-24T10:58:57;100498.67;;;25.43;40.46
54924;BME280;40825;52.270;20.984;2023-05-24T11:01:25;100501.94;;;25.45;40.18
54924;BME280;40825;52.270;20.984;2023-05-24T11:03:52;100500.45;;;25.42;40.53
54924;BME280;40825;52.270;20.984;2023-05-24T11:06:18;100500.13;;;25.31;40.59
54924;BME280;40825;52.270;20.984;2023-05-24T11:08:44;100500.64;;;25.28;40.70
54924;BME280;40825;52.270;20.984;2023-05-24T11:11:11;100504.88;;;25.31;40.47
54924;BME280;40825;52.270;20.984;2023-05-24T11:13:39;100504.15;;;25.32;40.84
54924;BME280;40825;52.270;20.984;2023-05-24T11:16:05;100506.23;;;25.30;40.60
54924;BME280;40825;52.270;20.984;2023-05-24T11:18:31;100506.93;;;25.26;40.95
54924;BME280;40825;52.270;20.984;2023-05-24T11:20:58;100508.77;;;25.28;41.13
54924;BME280;40825;52.270;20.984;2023-05-24T11:23:25;100510.63;;;25.28;40.87
54924;BME280;40825;52.270;20.984;2023-05-24T11:25:51;100513.96;;;25.22;41.02
54924;BME280;40825;52.270;20.984;2023-05-24T11:28:17;100507.36;;;25.21;40.74
54924;BME280;40825;52.270;20.984;2023-05-24T11:30:45;100506.87;;;25.22;40.68
54924;BME280;40825;52.270;20.984;2023-05-24T11:33:14;100505.95;;;25.20;41.00
54924;BME280;40825;52.270;20.984;2023-05-24T11:35:40;100504.95;;;25.16;41.68
54924;BME280;40825;52.270;20.984;2023-05-24T11:38:10;100502.56;;;25.09;41.31
54924;BME280;40825;52.270;20.984;2023-05-24T11:40:48;100507.27;;;25.00;41.40
54924;BME280;40825;52.270;20.984;2023-05-24T11:43:17;100512.09;;;24.91;41.89
54924;BME280;40825;52.270;20.984;2023-05-24T11:45:44;100520.15;;;24.80;41.75
54924;BME280;40825;52.270;20.984;2023-05-24T11:48:10;100520.08;;;24.70;41.74
54924;BME280;40825;52.270;20.984;2023-05-24T11:50:38;100521.80;;;24.66;41.74
54924;BME280;40825;52.270;20.984;2023-05-24T11:53:03;100519.25;;;24.65;41.84
54924;BME280;40825;52.270;20.984;2023-05-24T11:55:29;100513.90;;;24.64;42.18
54924;BME280;40825;52.270;20.984;2023-05-24T11:57:57;100510.78;;;24.64;42.33
54924;BME280;40825;52.270;20.984;2023-05-24T12:00:27;100509.64;;;24.64;42.21
54924;BME280;40825;52.270;20.984;2023-05-24T12:02:55;100507.57;;;24.65;42.75
54924;BME280;40825;52.270;20.984;2023-05-24T12:05:22;100510.51;;;24.67;42.42
54924;BME280;40825;52.270;20.984;2023-05-24T12:07:47;100511.65;;;24.74;42.03
54924;BME280;40825;52.270;20.984;2023-05-24T12:10:24;100511.19;;;24.79;42.27
54924;BME280;40825;52.270;20.984;2023-05-24T12:12:49;100510.21;;;24.80;42.21
54924;BME280;40825;52.270;20.984;2023-05-24T12:15:14;100508.78;;;24.80;42.21
54924;BME280;40825;52.270;20.984;2023-05-24T12:17:43;100510.56;;;24.73;42.08
54924;BME280;40825;52.270;20.984;2023-05-24T12:20:14;100507.84;;;24.65;42.24
54924;BME280;40825;52.270;20.984;2023-05-24T12:22:47;100507.36;;;24.55;42.34
54924;BME280;40825;52.270;20.984;2023-05-24T12:25:16;100506.86;;;24.47;42.48
54924;BME280;40825;52.270;20.984;2023-05-24T12:27:45;100504.06;;;24.50;42.67
54924;BME280;40825;52.270;20.984;2023-05-24T12:30:14;100502.56;;;24.56;43.12
54924;BME280;40825;52.270;20.984;2023-05-24T12:32:49;100504.86;;;24.61;42.57
54924;BME280;40825;52.270;20.984;2023-05-24T12:35:19;100503.64;;;24.65;43.02
54924;BME280;40825;52.270;20.984;2023-05-24T12:37:44;100504.30;;;24.72;42.52
54924;BME280;40825;52.270;20.984;2023-05-24T12:40:15;100502.69;;;24.75;42.37
54924;BME280;40825;52.270;20.984;2023-05-24T12:42:43;100500.61;;;24.78;42.40
54924;BME280;40825;52.270;20.984;2023-05-24T12:45:10;100498.52;;;24.81;42.34
54924;BME280;40825;52.270;20.984;2023-05-24T12:47:36;100494.55;;;24.79;42.62
54924;BME280;40825;52.270;20.984;2023-05-24T12:50:02;100493.70;;;24.82;43.04
54924;BME280;40825;52.270;20.984;2023-05-24T12:52:28;100494.02;;;24.90;42.56
54924;BME280;40825;52.270;20.984;2023-05-24T12:54:54;100496.89;;;24.94;42.57
54924;BME280;40825;52.270;20.984;2023-05-24T12:57:19;100499.46;;;24.94;42.81